createdAt,value
2024-02-19T00:00:32.410Z,5.82
2024-02-19T00:01:34.011Z,5.85
2024-02-19T00:02:35.597Z,5.88
2024-02-19T00:03:37.135Z,5.88
2024-02-19T00:04:38.752Z,5.85
2024-02-19T00:05:40.401Z,5.88
2024-02-19T00:06:41.912Z,5.91
2024-02-19T00:07:43.588Z,5.89
2024-02-19T00:08:45.080Z,5.89
2024-02-19T00:09:46.592Z,5.89
2024-02-19T00:10:48.742Z,5.95
2024-02-19T00:11:50.360Z,5.88
2024-02-19T00:12:52.367Z,5.88
2024-02-19T00:13:53.823Z,5.89
2024-02-19T00:14:55.797Z,5.85
2024-02-19T00:15:57.311Z,5.83
2024-02-19T00:16:59.003Z,5.86
2024-02-19T00:18:00.622Z,5.81
2024-02-19T00:19:02.264Z,5.82
2024-02-19T00:20:04.152Z,5.77
2024-02-19T00:21:05.762Z,5.82
2024-02-19T00:22:09.452Z,5.84
2024-02-19T00:23:11.001Z,5.81
2024-02-19T00:24:12.495Z,5.84
2024-02-19T00:25:14.006Z,5.81
2024-02-19T00:26:15.534Z,5.86
2024-02-19T00:27:18.439Z,5.89
2024-02-19T00:28:20.208Z,5.91
2024-02-19T00:29:21.806Z,5.90
2024-02-19T00:30:23.281Z,5.86
2024-02-19T00:31:26.369Z,5.91
2024-02-19T00:32:28.166Z,5.89
2024-02-19T00:33:29.771Z,5.88
2024-02-19T00:34:31.342Z,5.94
2024-02-19T00:35:33.990Z,5.94
2024-02-19T00:36:35.513Z,5.93
2024-02-19T00:37:38.564Z,5.91
2024-02-19T00:38:40.301Z,5.91
2024-02-19T00:39:41.967Z,5.88
2024-02-19T00:40:43.559Z,5.88
2024-02-19T00:41:45.046Z,5.90
2024-02-19T00:42:46.735Z,5.94
2024-02-19T00:43:48.302Z,5.94
2024-02-19T00:44:50.015Z,5.96
2024-02-19T00:45:52.735Z,5.95
2024-02-19T00:46:54.300Z,5.95
2024-02-19T00:47:55.833Z,5.91
2024-02-19T00:48:57.390Z,5.93
2024-02-19T00:49:59.104Z,5.88
2024-02-19T00:51:04.200Z,5.95
2024-02-19T00:52:05.955Z,5.92
2024-02-19T00:53:07.431Z,5.91
2024-02-19T00:54:09.023Z,5.89
2024-02-19T00:55:10.962Z,5.91
2024-02-19T00:56:12.573Z,5.93
2024-02-19T00:57:14.076Z,5.95
2024-02-19T00:58:15.656Z,5.90
2024-02-19T00:59:17.427Z,5.94
2024-02-19T01:00:19.039Z,5.94
2024-02-19T01:01:20.728Z,5.93
2024-02-19T01:02:22.293Z,5.94
2024-02-19T01:03:23.818Z,5.91
2024-02-19T01:04:25.647Z,5.86
2024-02-19T01:05:27.203Z,5.90
2024-02-19T01:06:29.096Z,5.90
2024-02-19T01:07:31.358Z,5.93
2024-02-19T01:08:33.000Z,5.93
2024-02-19T01:09:34.983Z,5.98
2024-02-19T01:10:36.471Z,5.98
2024-02-19T01:11:37.936Z,5.94
2024-02-19T01:12:39.450Z,5.97
2024-02-19T01:13:41.125Z,5.99
2024-02-19T01:14:43.019Z,5.98
2024-02-19T01:15:44.532Z,5.93
2024-02-19T01:16:47.720Z,5.91
2024-02-19T01:17:49.895Z,5.96
2024-02-19T01:18:53.052Z,5.93
2024-02-19T01:19:54.842Z,5.91
2024-02-19T01:20:57.096Z,5.90
2024-02-19T01:21:58.819Z,5.91
2024-02-19T01:23:00.570Z,5.88
2024-02-19T01:24:02.094Z,5.91
2024-02-19T01:25:03.982Z,5.89
2024-02-19T01:26:05.489Z,5.81
2024-02-19T01:27:07.657Z,5.86
2024-02-19T01:28:09.246Z,5.84
2024-02-19T01:29:10.747Z,5.83
2024-02-19T01:30:12.741Z,5.82
2024-02-19T01:31:14.414Z,5.83
2024-02-19T01:32:16.180Z,5.81
2024-02-19T01:33:17.905Z,5.85
2024-02-19T01:34:19.941Z,5.84
2024-02-19T01:35:23.388Z,5.82
2024-02-19T01:36:25.194Z,5.79
2024-02-19T01:37:26.673Z,5.79
2024-02-19T01:38:28.195Z,5.77
2024-02-19T01:39:29.649Z,5.78
2024-02-19T01:40:31.364Z,5.80
2024-02-19T01:41:33.091Z,5.83
2024-02-19T01:42:34.648Z,5.87
2024-02-19T01:43:37.595Z,5.87
2024-02-19T01:44:39.058Z,5.87
2024-02-19T01:45:40.633Z,5.85
2024-02-19T01:46:43.702Z,5.88
2024-02-19T01:47:45.235Z,5.87
2024-02-19T01:48:46.799Z,5.87
2024-02-19T01:49:48.449Z,5.88
2024-02-19T01:50:50.548Z,5.91
2024-02-19T01:51:53.102Z,5.91
2024-02-19T01:52:55.605Z,5.90
2024-02-19T01:53:57.963Z,5.91
2024-02-19T01:54:59.822Z,5.87
2024-02-19T01:56:01.447Z,5.88
2024-02-19T01:57:02.984Z,5.90
2024-02-19T01:58:06.198Z,5.93
2024-02-19T01:59:15.579Z,5.96
2024-02-19T02:00:18.566Z,5.92
2024-02-19T02:01:20.445Z,5.87
2024-02-19T02:02:23.426Z,5.90
2024-02-19T02:03:25.876Z,5.86
2024-02-19T02:04:28.040Z,5.85
2024-02-19T02:05:29.639Z,5.82
2024-02-19T02:06:31.242Z,5.87
2024-02-19T02:07:33.082Z,5.93
2024-02-19T02:08:40.334Z,5.92
2024-02-19T02:09:42.184Z,5.97
2024-02-19T02:10:43.745Z,5.99
2024-02-19T02:11:45.314Z,5.94
2024-02-19T02:12:46.884Z,5.92
2024-02-19T02:13:48.355Z,5.93
2024-02-19T02:14:49.852Z,5.90
2024-02-19T02:15:51.351Z,5.97
2024-02-19T02:16:52.825Z,6.04
2024-02-19T02:17:54.565Z,5.93
2024-02-19T02:18:56.759Z,6.02
2024-02-19T02:19:58.526Z,5.96
2024-02-19T02:21:00.257Z,6.00
2024-02-19T02:22:02.035Z,6.04
2024-02-19T02:23:04.698Z,6.05
2024-02-19T02:24:06.319Z,6.03
2024-02-19T02:25:08.045Z,5.96
2024-02-19T02:26:09.617Z,6.01
2024-02-19T02:27:11.509Z,6.06
2024-02-19T02:28:13.086Z,6.08
2024-02-19T02:29:14.661Z,6.05
2024-02-19T02:30:16.187Z,6.07
2024-02-19T02:31:17.753Z,6.05
2024-02-19T02:32:19.685Z,6.03
2024-02-19T02:33:21.324Z,6.02
2024-02-19T02:34:23.647Z,6.02
2024-02-19T02:35:25.904Z,5.96
2024-02-19T02:36:27.377Z,6.00
2024-02-19T02:37:28.843Z,6.07
2024-02-19T02:38:30.392Z,6.00
2024-02-19T02:39:32.682Z,6.00
2024-02-19T02:40:34.259Z,6.00
2024-02-19T02:41:35.846Z,5.98
2024-02-19T02:42:37.331Z,6.02
2024-02-19T02:43:38.896Z,6.00
2024-02-19T02:44:40.404Z,6.06
2024-02-19T02:45:41.917Z,6.00
2024-02-19T02:46:43.486Z,6.00
2024-02-19T02:47:44.989Z,5.97
2024-02-19T02:48:46.700Z,5.96
2024-02-19T02:49:48.257Z,5.99
2024-02-19T02:50:49.737Z,6.03
2024-02-19T02:51:51.257Z,6.06
2024-02-19T02:52:52.736Z,6.01
2024-02-19T02:53:54.233Z,6.04
2024-02-19T02:54:55.745Z,6.06
2024-02-19T02:55:57.511Z,6.08
2024-02-19T02:56:59.304Z,6.00
2024-02-19T02:58:00.745Z,5.97
2024-02-19T02:59:02.248Z,6.05
2024-02-19T03:00:05.594Z,6.02
2024-02-19T03:01:07.465Z,5.96
2024-02-19T03:02:09.356Z,5.96
2024-02-19T03:03:11.146Z,6.00
2024-02-19T03:04:12.791Z,5.93
2024-02-19T03:05:14.332Z,5.91
2024-02-19T03:06:15.777Z,5.94
2024-02-19T03:07:17.357Z,5.96
2024-02-19T03:08:19.585Z,5.95
2024-02-19T03:09:21.038Z,5.99
2024-02-19T03:10:22.614Z,5.92
2024-02-19T03:11:24.308Z,5.99
2024-02-19T03:12:25.870Z,6.03
2024-02-19T03:13:27.395Z,6.03
2024-02-19T03:14:28.850Z,6.03
2024-02-19T03:15:30.313Z,6.00
2024-02-19T03:16:31.783Z,6.02
2024-02-19T03:17:33.253Z,6.00
2024-02-19T03:18:38.489Z,6.00
2024-02-19T03:19:42.652Z,6.03
2024-02-19T03:20:44.224Z,5.99
2024-02-19T03:21:45.824Z,5.90
2024-02-19T03:22:47.373Z,5.90
2024-02-19T03:23:52.729Z,5.95
2024-02-19T03:24:54.536Z,5.91
2024-02-19T03:25:56.038Z,5.93
2024-02-19T03:26:59.657Z,5.86
2024-02-19T03:28:02.258Z,5.88
2024-02-19T03:29:10.517Z,5.84
2024-02-19T03:30:13.318Z,5.85
2024-02-19T03:31:14.926Z,5.86
2024-02-19T03:32:16.813Z,5.88
2024-02-19T03:33:18.426Z,5.90
2024-02-19T03:34:20.038Z,5.92
2024-02-19T03:35:21.544Z,5.97
2024-02-19T03:36:23.111Z,5.90
2024-02-19T03:37:24.698Z,5.95
2024-02-19T03:38:26.259Z,5.98
2024-02-19T03:39:27.909Z,5.90
2024-02-19T03:40:29.398Z,5.99
2024-02-19T03:41:30.904Z,6.00
2024-02-19T03:42:32.371Z,5.97
2024-02-19T03:43:37.223Z,5.92
2024-02-19T03:44:38.934Z,5.97
2024-02-19T03:45:40.420Z,5.93
2024-02-19T03:46:42.233Z,5.95
2024-02-19T03:47:44.034Z,5.98
2024-02-19T03:48:45.569Z,5.98
2024-02-19T03:49:47.166Z,5.99
2024-02-19T03:50:48.723Z,5.95
2024-02-19T03:51:50.203Z,5.93
2024-02-19T03:52:52.236Z,5.96
2024-02-19T03:53:54.010Z,5.96
2024-02-19T03:54:55.716Z,5.96
2024-02-19T03:55:57.647Z,5.93
2024-02-19T03:56:59.289Z,5.93
2024-02-19T03:58:00.888Z,5.92
2024-02-19T03:59:02.549Z,5.95
2024-02-19T04:00:05.287Z,5.92
2024-02-19T04:01:08.553Z,5.93
2024-02-19T04:02:10.548Z,6.00
2024-02-19T04:03:12.044Z,6.03
2024-02-19T04:04:16.115Z,5.96
2024-02-19T04:05:17.657Z,5.92
2024-02-19T04:06:19.189Z,5.97
2024-02-19T04:07:20.697Z,5.93
2024-02-19T04:08:22.241Z,5.96
2024-02-19T04:09:23.660Z,6.04
2024-02-19T04:10:25.267Z,5.96
2024-02-19T04:11:27.279Z,5.94
2024-02-19T04:12:28.731Z,6.01
2024-02-19T04:13:30.189Z,6.00
2024-02-19T04:14:31.712Z,5.94
2024-02-19T04:15:33.222Z,5.93
2024-02-19T04:16:34.654Z,5.94
2024-02-19T04:17:36.313Z,6.04
2024-02-19T04:18:38.101Z,6.03
2024-02-19T04:19:39.737Z,6.05
2024-02-19T04:20:41.441Z,6.01
2024-02-19T04:21:45.328Z,6.07
2024-02-19T04:22:47.556Z,6.05
2024-02-19T04:23:49.088Z,6.03
2024-02-19T04:24:50.661Z,6.00
2024-02-19T04:25:52.176Z,6.02
2024-02-19T04:26:53.594Z,6.00
2024-02-19T04:27:55.077Z,6.03
2024-02-19T04:28:57.412Z,6.05
2024-02-19T04:29:58.878Z,6.02
2024-02-19T04:31:00.387Z,6.06
2024-02-19T04:32:01.856Z,6.09
2024-02-19T04:33:03.549Z,6.08
2024-02-19T04:34:07.211Z,6.06
2024-02-19T04:35:09.153Z,6.06
2024-02-19T04:36:10.772Z,6.02
2024-02-19T04:37:12.334Z,6.02
2024-02-19T04:38:13.923Z,5.98
2024-02-19T04:39:15.398Z,6.08
2024-02-19T04:40:16.922Z,6.13
2024-02-19T04:41:18.513Z,6.05
2024-02-19T04:42:19.978Z,6.08
2024-02-19T04:43:21.532Z,6.13
2024-02-19T04:44:23.009Z,6.11
2024-02-19T04:45:24.465Z,6.10
2024-02-19T04:46:26.090Z,6.14
2024-02-19T04:47:27.552Z,6.10
2024-02-19T04:48:29.418Z,6.10
2024-02-19T04:49:30.916Z,6.07
2024-02-19T04:50:32.424Z,6.13
2024-02-19T04:51:33.879Z,6.10
2024-02-19T04:52:35.358Z,6.15
2024-02-19T04:53:36.928Z,6.07
2024-02-19T04:54:38.721Z,6.12
2024-02-19T04:55:40.287Z,6.08
2024-02-19T04:56:42.061Z,6.05
2024-02-19T04:57:44.034Z,6.04
2024-02-19T04:58:45.559Z,5.99
2024-02-19T04:59:47.008Z,6.00
2024-02-19T05:00:48.611Z,6.06
2024-02-19T05:01:51.991Z,6.06
2024-02-19T05:02:53.639Z,6.03
2024-02-19T05:03:55.856Z,5.99
2024-02-19T05:04:57.549Z,5.99
2024-02-19T05:05:59.125Z,5.98
2024-02-19T05:07:00.718Z,5.99
2024-02-19T05:08:04.235Z,5.99
2024-02-19T05:09:05.728Z,5.94
2024-02-19T05:10:08.213Z,5.94
2024-02-19T05:11:09.923Z,5.86
2024-02-19T05:12:11.414Z,5.79
2024-02-19T05:13:12.921Z,5.80
2024-02-19T05:14:14.699Z,5.79
2024-02-19T05:15:16.233Z,5.79
2024-02-19T05:16:18.129Z,5.80
2024-02-19T05:17:19.697Z,5.76
2024-02-19T05:18:21.196Z,5.77
2024-02-19T05:19:23.254Z,5.75
2024-02-19T05:20:25.151Z,5.74
2024-02-19T05:21:27.496Z,5.73
2024-02-19T05:22:29.065Z,5.71
2024-02-19T05:23:31.926Z,5.70
2024-02-19T05:24:33.459Z,5.69
2024-02-19T05:25:35.935Z,5.67
2024-02-19T05:26:37.383Z,5.66
2024-02-19T05:27:38.976Z,5.69
2024-02-19T05:28:40.735Z,5.69
2024-02-19T05:29:42.475Z,5.73
2024-02-19T05:30:44.279Z,5.66
2024-02-19T05:31:45.912Z,5.71
2024-02-19T05:32:47.349Z,5.74
2024-02-19T05:33:48.893Z,5.80
2024-02-19T05:34:50.410Z,5.75
2024-02-19T05:35:52.034Z,5.78
2024-02-19T05:36:53.530Z,5.75
2024-02-19T05:37:55.169Z,5.72
2024-02-19T05:38:56.662Z,5.73
2024-02-19T05:39:58.214Z,5.75
2024-02-19T05:41:00.954Z,5.71
2024-02-19T05:42:02.767Z,5.69
2024-02-19T05:43:04.561Z,5.76
2024-02-19T05:44:06.163Z,5.73
2024-02-19T05:45:07.824Z,5.73
2024-02-19T05:46:09.907Z,5.81
2024-02-19T05:47:11.463Z,5.83
2024-02-19T05:48:13.549Z,5.82
2024-02-19T05:49:15.328Z,5.83
2024-02-19T05:50:17.102Z,5.74
2024-02-19T05:51:18.815Z,5.74
2024-02-19T05:52:20.422Z,5.72
2024-02-19T05:53:22.031Z,5.72
2024-02-19T05:54:23.774Z,5.67
2024-02-19T05:55:25.382Z,5.66
2024-02-19T05:56:27.817Z,5.69
2024-02-19T05:57:29.504Z,5.68
2024-02-19T05:58:31.876Z,5.68
2024-02-19T05:59:33.448Z,5.72
2024-02-19T06:00:34.917Z,5.70
2024-02-19T06:01:36.642Z,5.68
2024-02-19T06:02:38.431Z,5.72
2024-02-19T06:03:40.124Z,5.69
2024-02-19T06:04:41.845Z,5.72
2024-02-19T06:05:43.716Z,5.72
2024-02-19T06:06:45.397Z,5.70
2024-02-19T06:07:46.926Z,5.75
2024-02-19T06:08:48.442Z,5.73
2024-02-19T06:09:49.926Z,5.74
2024-02-19T06:10:51.426Z,5.72
2024-02-19T06:11:52.981Z,5.67
2024-02-19T06:12:54.485Z,5.64
2024-02-19T06:13:56.017Z,5.68
2024-02-19T06:14:57.496Z,5.64
2024-02-19T06:15:59.012Z,5.59
2024-02-19T06:17:00.639Z,5.60
2024-02-19T06:18:02.251Z,5.61
2024-02-19T06:19:04.140Z,5.57
2024-02-19T06:20:06.084Z,5.64
2024-02-19T06:21:07.990Z,5.67
2024-02-19T06:22:09.645Z,5.62
2024-02-19T06:23:11.421Z,5.69
2024-02-19T06:24:13.133Z,5.65
2024-02-19T06:25:14.706Z,5.70
2024-02-19T06:26:16.201Z,5.69
2024-02-19T06:27:17.748Z,5.69
2024-02-19T06:28:19.324Z,5.69
2024-02-19T06:29:20.800Z,5.68
2024-02-19T06:30:22.913Z,5.64
2024-02-19T06:31:28.743Z,5.56
2024-02-19T06:32:30.334Z,5.61
2024-02-19T06:33:31.814Z,5.58
2024-02-19T06:34:35.921Z,5.64
2024-02-19T06:35:38.043Z,5.62
2024-02-19T06:36:39.633Z,5.58
2024-02-19T06:37:42.200Z,5.60
2024-02-19T06:38:43.700Z,5.55
2024-02-19T06:39:45.269Z,5.58
2024-02-19T06:40:47.078Z,5.53
2024-02-19T06:41:48.539Z,5.55
2024-02-19T06:42:52.189Z,5.51
2024-02-19T06:43:55.287Z,5.50
2024-02-19T06:44:56.790Z,5.50
2024-02-19T06:45:59.728Z,5.53
2024-02-19T06:47:01.282Z,5.55
2024-02-19T06:48:05.309Z,5.56
2024-02-19T06:49:07.060Z,5.59
2024-02-19T06:50:09.082Z,5.63
2024-02-19T06:51:10.690Z,5.55
2024-02-19T06:52:12.263Z,5.60
2024-02-19T06:53:14.137Z,5.58
2024-02-19T06:54:15.688Z,5.56
2024-02-19T06:55:18.439Z,5.57
2024-02-19T06:56:20.010Z,5.58
2024-02-19T06:57:21.499Z,5.58
2024-02-19T06:58:23.311Z,5.60
2024-02-19T06:59:24.924Z,5.60
2024-02-19T07:00:27.518Z,5.56
2024-02-19T07:01:29.193Z,5.58
2024-02-19T07:02:30.691Z,5.59
2024-02-19T07:03:32.223Z,5.67
2024-02-19T07:04:38.034Z,5.67
2024-02-19T07:05:39.876Z,5.65
2024-02-19T07:06:41.677Z,5.64
2024-02-19T07:07:43.234Z,5.62
2024-02-19T07:08:44.979Z,5.60
2024-02-19T07:09:46.526Z,5.60
2024-02-19T07:10:48.215Z,5.64
2024-02-19T07:11:49.743Z,5.66
2024-02-19T07:12:51.390Z,5.64
2024-02-19T07:13:56.480Z,5.67
2024-02-19T07:14:58.883Z,5.63
2024-02-19T07:16:00.416Z,5.62
2024-02-19T07:17:01.951Z,5.67
2024-02-19T07:18:03.704Z,5.68
2024-02-19T07:19:05.354Z,5.68
2024-02-19T07:20:08.007Z,5.70
2024-02-19T07:21:09.744Z,5.79
2024-02-19T07:22:11.446Z,5.86
2024-02-19T07:23:13.021Z,5.76
2024-02-19T07:24:14.815Z,5.80
2024-02-19T07:25:21.171Z,5.78
2024-02-19T07:26:23.751Z,5.70
2024-02-19T07:27:26.841Z,5.76
2024-02-19T07:28:28.480Z,5.72
2024-02-19T07:29:30.134Z,5.70
2024-02-19T07:30:31.674Z,5.75
2024-02-19T07:31:33.196Z,5.72
2024-02-19T07:32:34.833Z,5.73
2024-02-19T07:33:36.593Z,5.84
2024-02-19T07:34:40.225Z,5.76
2024-02-19T07:35:43.030Z,5.74
2024-02-19T07:36:47.762Z,5.69
2024-02-19T07:37:49.306Z,5.77
2024-02-19T07:38:50.734Z,5.81
2024-02-19T07:39:52.280Z,5.77
2024-02-19T07:40:53.803Z,5.75
2024-02-19T07:41:55.359Z,5.75
2024-02-19T07:42:57.001Z,5.78
2024-02-19T07:43:58.591Z,5.81
2024-02-19T07:45:00.069Z,5.83
2024-02-19T07:46:01.637Z,5.81
2024-02-19T07:47:04.978Z,5.77
2024-02-19T07:48:08.215Z,5.77
2024-02-19T07:49:10.031Z,5.80
2024-02-19T07:50:11.911Z,5.72
2024-02-19T07:51:15.954Z,5.79
2024-02-19T07:52:17.607Z,5.84
2024-02-19T07:53:19.152Z,5.87
2024-02-19T07:54:20.652Z,5.84
2024-02-19T07:55:22.252Z,5.81
2024-02-19T07:56:23.836Z,5.86
2024-02-19T07:57:25.326Z,5.82
2024-02-19T07:58:27.046Z,5.80
2024-02-19T07:59:28.706Z,5.86
2024-02-19T08:00:30.209Z,5.80
2024-02-19T08:01:31.889Z,5.75
2024-02-19T08:02:33.437Z,5.76
2024-02-19T08:03:35.315Z,5.80
2024-02-19T08:04:37.167Z,5.89
2024-02-19T08:05:38.770Z,5.98
2024-02-19T08:06:40.364Z,6.03
2024-02-19T08:07:42.051Z,6.02
2024-02-19T08:08:44.388Z,6.11
2024-02-19T08:09:47.013Z,6.07
2024-02-19T08:10:49.286Z,6.23
2024-02-19T08:11:52.992Z,6.28
2024-02-19T08:12:54.710Z,6.30
2024-02-19T08:13:56.539Z,6.32
2024-02-19T08:14:58.609Z,6.37
2024-02-19T08:16:00.470Z,6.32
2024-02-19T08:17:02.670Z,6.28
2024-02-19T08:18:05.171Z,6.30
2024-02-19T08:19:06.993Z,6.33
2024-02-19T08:20:09.315Z,6.37
2024-02-19T08:21:10.846Z,6.35
2024-02-19T08:22:12.472Z,6.36
2024-02-19T08:23:14.657Z,6.44
2024-02-19T08:24:16.158Z,6.46
2024-02-19T08:25:17.682Z,6.43
2024-02-19T08:26:19.200Z,6.51
2024-02-19T08:27:20.767Z,6.51
2024-02-19T08:28:22.365Z,6.51
2024-02-19T08:29:23.978Z,6.45
2024-02-19T08:30:25.702Z,6.47
2024-02-19T08:31:28.692Z,6.55
2024-02-19T08:32:30.267Z,6.66
2024-02-19T08:33:31.800Z,6.58
2024-02-19T08:34:33.292Z,6.65
2024-02-19T08:35:35.242Z,6.69
2024-02-19T08:36:38.704Z,6.73
2024-02-19T08:37:40.299Z,6.73
2024-02-19T08:38:45.853Z,6.75
2024-02-19T08:39:48.638Z,6.75
2024-02-19T08:40:50.382Z,6.83
2024-02-19T08:41:51.924Z,6.83
2024-02-19T08:42:53.492Z,6.78
2024-02-19T08:43:55.051Z,6.88
2024-02-19T08:44:56.784Z,6.88
2024-02-19T08:45:58.350Z,6.87
2024-02-19T08:47:06.272Z,6.85
2024-02-19T08:48:08.555Z,6.83
2024-02-19T08:49:11.450Z,6.75
2024-02-19T08:50:13.535Z,6.81
2024-02-19T08:51:15.559Z,6.75
2024-02-19T08:52:17.123Z,6.88
2024-02-19T08:53:19.428Z,6.90
2024-02-19T08:54:20.917Z,6.89
2024-02-19T08:55:22.476Z,6.90
2024-02-19T08:56:24.014Z,6.86
2024-02-19T08:57:25.669Z,6.81
2024-02-19T08:58:27.223Z,6.85
2024-02-19T08:59:28.882Z,6.76
2024-02-19T09:00:33.865Z,6.90
2024-02-19T09:01:36.425Z,6.86
2024-02-19T09:02:39.555Z,6.79
2024-02-19T09:03:41.510Z,6.76
2024-02-19T09:04:44.306Z,6.83
2024-02-19T09:05:46.254Z,6.81
2024-02-19T09:06:47.791Z,6.77
2024-02-19T09:07:49.442Z,6.81
2024-02-19T09:08:50.971Z,6.75
2024-02-19T09:09:52.509Z,6.79
2024-02-19T09:10:54.904Z,6.77
2024-02-19T09:11:56.410Z,6.78
2024-02-19T09:12:57.934Z,6.81
2024-02-19T09:13:59.513Z,6.82
2024-02-19T09:15:01.288Z,6.76
2024-02-19T09:16:03.557Z,6.74
2024-02-19T09:17:06.849Z,6.74
2024-02-19T09:18:08.639Z,6.84
2024-02-19T09:19:10.300Z,6.90
2024-02-19T09:20:12.787Z,6.87
2024-02-19T09:21:14.275Z,6.92
2024-02-19T09:22:16.024Z,6.95
2024-02-19T09:23:18.015Z,6.98
2024-02-19T09:24:19.761Z,7.04
2024-02-19T09:25:21.231Z,7.03
2024-02-19T09:26:22.663Z,7.06
2024-02-19T09:27:24.808Z,7.01
2024-02-19T09:28:26.536Z,7.11
2024-02-19T09:29:28.079Z,7.10
2024-02-19T09:30:29.791Z,7.05
2024-02-19T09:31:31.343Z,7.04
2024-02-19T09:32:33.185Z,7.14
2024-02-19T09:33:35.367Z,7.15
2024-02-19T09:34:37.110Z,7.22
2024-02-19T09:35:38.728Z,7.24
2024-02-19T09:36:40.576Z,7.25
2024-02-19T09:37:42.089Z,7.23
2024-02-19T09:38:43.560Z,7.19
2024-02-19T09:39:50.843Z,7.20
2024-02-19T09:40:52.566Z,7.13
2024-02-19T09:41:54.785Z,7.07
2024-02-19T09:42:56.626Z,7.17
2024-02-19T09:43:58.231Z,7.20
2024-02-19T09:44:59.917Z,7.12
2024-02-19T09:46:04.949Z,7.13
2024-02-19T09:47:08.331Z,7.06
2024-02-19T09:48:13.919Z,7.20
2024-02-19T09:49:18.916Z,7.12
2024-02-19T09:50:20.981Z,7.09
2024-02-19T09:51:33.025Z,7.20
2024-02-19T09:52:41.035Z,7.30
2024-02-19T09:53:44.348Z,7.21
2024-02-19T09:54:47.340Z,7.20
2024-02-19T09:55:50.445Z,7.21
2024-02-19T09:56:55.825Z,7.26
2024-02-19T09:57:57.683Z,7.32
2024-02-19T09:58:59.289Z,7.24
2024-02-19T10:00:05.424Z,7.29
2024-02-19T10:01:10.298Z,7.24
2024-02-19T10:02:13.320Z,7.36
2024-02-19T10:03:19.391Z,7.36
2024-02-19T10:04:22.036Z,7.28
2024-02-19T10:05:23.956Z,7.27
2024-02-19T10:06:36.638Z,7.22
2024-02-19T10:07:39.029Z,7.27
2024-02-19T10:08:40.661Z,7.24
2024-02-19T10:09:42.415Z,7.28
2024-02-19T10:10:46.748Z,7.26
2024-02-19T10:11:50.555Z,7.32
2024-02-19T10:12:52.277Z,7.31
2024-02-19T10:13:54.191Z,7.28
2024-02-19T10:14:56.916Z,7.31
2024-02-19T10:15:58.466Z,7.27
2024-02-19T10:17:01.316Z,7.26
2024-02-19T10:18:20.883Z,7.33
2024-02-19T10:19:22.708Z,7.28
2024-02-19T10:20:24.350Z,7.35
2024-02-19T10:21:26.090Z,7.32
2024-02-19T10:22:27.603Z,7.31
2024-02-19T10:23:29.197Z,7.40
2024-02-19T10:24:30.916Z,7.38
2024-02-19T10:25:32.405Z,7.44
2024-02-19T10:26:34.441Z,7.47
2024-02-19T10:27:36.776Z,7.46
2024-02-19T10:28:40.376Z,7.37
2024-02-19T10:29:41.860Z,7.40
2024-02-19T10:30:44.405Z,7.39
2024-02-19T10:31:46.097Z,7.26
2024-02-19T10:32:48.008Z,7.43
2024-02-19T10:33:49.859Z,7.39
2024-02-19T10:34:51.707Z,7.34
2024-02-19T10:35:53.793Z,7.32
2024-02-19T10:36:55.950Z,7.39
2024-02-19T10:37:59.616Z,7.30
2024-02-19T10:39:01.240Z,7.40
2024-02-19T10:40:05.349Z,7.31
2024-02-19T10:41:06.824Z,7.36
2024-02-19T10:42:09.146Z,7.34
2024-02-19T10:43:11.756Z,7.40
2024-02-19T10:44:13.269Z,7.40
2024-02-19T10:45:15.828Z,7.41
2024-02-19T10:46:21.547Z,7.53
2024-02-19T10:47:23.803Z,7.53
2024-02-19T10:48:26.955Z,7.49
2024-02-19T10:49:28.682Z,7.56
2024-02-19T10:50:33.437Z,7.59
2024-02-19T10:51:36.342Z,7.60
2024-02-19T10:52:42.951Z,7.52
2024-02-19T10:53:47.693Z,7.37
2024-02-19T10:55:02.759Z,7.27
2024-02-19T10:56:19.509Z,7.31
2024-02-19T10:57:21.112Z,7.40
2024-02-19T10:58:26.448Z,7.30
2024-02-19T10:59:29.078Z,7.38
2024-02-19T11:00:30.704Z,7.38
2024-02-19T11:01:42.610Z,7.43
2024-02-19T11:02:45.125Z,7.58
2024-02-19T11:03:46.898Z,7.54
2024-02-19T11:04:51.984Z,7.54
2024-02-19T11:05:53.743Z,7.51
2024-02-19T11:06:57.383Z,7.70
2024-02-19T11:07:59.533Z,7.70
2024-02-19T11:09:01.231Z,7.83
2024-02-19T11:10:06.762Z,7.86
2024-02-19T11:11:08.474Z,7.83
2024-02-19T11:12:14.563Z,8.05
2024-02-19T11:13:19.544Z,8.12
2024-02-19T11:14:22.684Z,8.13
2024-02-19T11:15:29.939Z,8.12
2024-02-19T11:16:34.866Z,8.03
2024-02-19T11:17:36.469Z,7.79
2024-02-19T11:18:38.092Z,7.86
2024-02-19T11:19:40.586Z,8.02
2024-02-19T11:20:42.628Z,8.02
2024-02-19T11:21:45.540Z,7.93
2024-02-19T11:22:47.011Z,8.07
2024-02-19T11:23:48.491Z,8.14
2024-02-19T11:24:51.927Z,8.13
2024-02-19T11:25:54.803Z,8.23
2024-02-19T11:26:56.594Z,8.04
2024-02-19T11:27:59.782Z,8.02
2024-02-19T11:29:01.542Z,8.12
2024-02-19T11:30:05.900Z,8.19
2024-02-19T11:31:07.920Z,8.15
2024-02-19T11:32:09.933Z,8.05
2024-02-19T11:33:13.519Z,8.01
2024-02-19T11:34:19.433Z,8.00
2024-02-19T11:35:21.138Z,8.12
2024-02-19T11:36:22.896Z,8.00
2024-02-19T11:37:24.432Z,7.91
2024-02-19T11:38:27.495Z,7.91
2024-02-19T11:39:29.132Z,7.89
2024-02-19T11:40:34.057Z,7.97
2024-02-19T11:41:36.019Z,8.13
2024-02-19T11:42:38.506Z,8.11
2024-02-19T11:43:40.380Z,8.21
2024-02-19T11:44:42.717Z,8.29
2024-02-19T11:45:44.501Z,8.41
2024-02-19T11:46:46.887Z,8.56
2024-02-19T11:47:48.485Z,8.59
2024-02-19T11:48:50.781Z,8.67
2024-02-19T11:49:53.354Z,8.59
2024-02-19T11:50:55.159Z,8.44
2024-02-19T11:52:04.924Z,8.47
2024-02-19T11:53:12.729Z,8.54
2024-02-19T11:54:16.870Z,8.59
2024-02-19T11:55:20.626Z,8.76
2024-02-19T11:56:22.257Z,8.73
2024-02-19T11:57:27.584Z,8.76
2024-02-19T11:58:30.134Z,8.74
2024-02-19T11:59:32.629Z,8.68
2024-02-19T12:00:34.598Z,8.62
2024-02-19T12:01:36.152Z,8.77
2024-02-19T12:02:43.813Z,8.80
2024-02-19T12:03:46.288Z,8.61
2024-02-19T12:04:52.552Z,8.58
2024-02-19T12:05:54.599Z,8.57
2024-02-19T12:06:56.460Z,8.51
2024-02-19T12:07:58.361Z,8.41
2024-02-19T12:09:00.099Z,8.48
2024-02-19T12:10:01.808Z,8.57
2024-02-19T12:11:07.515Z,8.65
2024-02-19T12:12:09.613Z,8.66
2024-02-19T12:13:11.183Z,8.52
2024-02-19T12:14:18.533Z,8.58
2024-02-19T12:15:23.162Z,8.49
2024-02-19T12:16:29.371Z,8.52
2024-02-19T12:17:33.666Z,8.47
2024-02-19T12:18:35.714Z,8.47
2024-02-19T12:19:37.524Z,8.39
2024-02-19T12:20:39.579Z,8.44
2024-02-19T12:21:43.488Z,8.34
2024-02-19T12:22:45.254Z,8.34
2024-02-19T12:23:49.697Z,8.25
2024-02-19T12:24:53.396Z,8.25
2024-02-19T12:25:54.970Z,8.15
2024-02-19T12:26:56.455Z,8.12
2024-02-19T12:27:58.028Z,8.14
2024-02-19T12:28:59.778Z,8.18
2024-02-19T12:30:05.047Z,8.10
2024-02-19T12:31:06.786Z,8.09
2024-02-19T12:32:08.571Z,8.11
2024-02-19T12:33:12.288Z,8.02
2024-02-19T12:34:14.013Z,7.92
2024-02-19T12:35:17.120Z,7.96
2024-02-19T12:36:19.510Z,7.94
2024-02-19T12:37:21.215Z,7.90
2024-02-19T12:38:22.854Z,7.91
2024-02-19T12:39:26.766Z,7.77
2024-02-19T12:40:28.588Z,7.75
2024-02-19T12:41:30.863Z,7.83
2024-02-19T12:42:32.513Z,7.85
2024-02-19T12:43:34.005Z,7.82
2024-02-19T12:44:35.843Z,7.88
2024-02-19T12:45:37.502Z,7.83
2024-02-19T12:46:39.141Z,7.91
2024-02-19T12:47:41.028Z,8.00
2024-02-19T12:48:43.793Z,8.32
2024-02-19T12:49:45.595Z,8.52
2024-02-19T12:50:47.192Z,8.71
2024-02-19T12:51:49.712Z,8.80
2024-02-19T12:52:51.351Z,8.74
2024-02-19T12:53:52.881Z,8.76
2024-02-19T12:54:55.363Z,8.88
2024-02-19T12:55:57.544Z,8.91
2024-02-19T12:56:59.352Z,9.02
2024-02-19T12:58:01.120Z,8.94
2024-02-19T12:59:02.926Z,8.92
2024-02-19T13:00:08.179Z,8.87
2024-02-19T13:01:20.539Z,8.97
2024-02-19T13:02:31.234Z,9.07
2024-02-19T13:03:32.760Z,9.24
2024-02-19T13:04:34.319Z,9.24
2024-02-19T13:05:35.946Z,9.32
2024-02-19T13:06:37.730Z,9.22
2024-02-19T13:07:40.081Z,9.20
2024-02-19T13:08:45.120Z,9.18
2024-02-19T13:09:46.639Z,9.12
2024-02-19T13:10:48.267Z,9.12
2024-02-19T13:11:49.844Z,9.02
2024-02-19T13:12:51.932Z,9.11
2024-02-19T13:13:53.486Z,8.99
2024-02-19T13:14:57.477Z,9.05
2024-02-19T13:15:58.991Z,9.01
2024-02-19T13:17:09.152Z,9.05
2024-02-19T13:18:15.298Z,9.04
2024-02-19T13:19:18.581Z,9.01
2024-02-19T13:20:23.215Z,9.02
2024-02-19T13:21:24.809Z,9.13
2024-02-19T13:22:27.766Z,9.26
2024-02-19T13:23:29.247Z,9.20
2024-02-19T13:24:30.712Z,9.26
2024-02-19T13:25:32.964Z,9.29
2024-02-19T13:26:34.786Z,9.39
2024-02-19T13:27:36.702Z,9.32
2024-02-19T13:28:38.188Z,9.38
2024-02-19T13:29:39.716Z,9.47
2024-02-19T13:30:41.360Z,9.38
2024-02-19T13:31:43.080Z,9.24
2024-02-19T13:32:48.063Z,9.12
2024-02-19T13:33:49.881Z,9.08
2024-02-19T13:34:51.673Z,9.22
2024-02-19T13:35:53.671Z,9.13
2024-02-19T13:36:55.689Z,9.00
2024-02-19T13:37:58.227Z,9.04
2024-02-19T13:38:59.739Z,8.92
2024-02-19T13:40:01.269Z,8.93
2024-02-19T13:41:05.342Z,9.02
2024-02-19T13:42:06.986Z,9.05
2024-02-19T13:43:08.758Z,9.01
2024-02-19T13:44:10.284Z,9.10
2024-02-19T13:45:11.905Z,9.12
2024-02-19T13:46:14.462Z,9.10
2024-02-19T13:47:16.199Z,9.15
2024-02-19T13:48:19.769Z,9.10
2024-02-19T13:49:21.683Z,9.00